createdAt,value
2017-11-18T00:01:46.690Z,101308.34
2017-11-18T00:04:14.145Z,101303.89
2017-11-18T00:06:41.609Z,101304.33
2017-11-18T00:09:09.108Z,101300.38
2017-11-18T00:11:36.565Z,101303.05
2017-11-18T00:14:04.052Z,101306.61
2017-11-18T00:16:31.516Z,101313.66
2017-11-18T00:18:58.993Z,101307.45
2017-11-18T00:21:26.448Z,101307.45
2017-11-18T00:23:53.932Z,101315.00
2017-11-18T00:26:21.402Z,101313.22
2017-11-18T00:28:48.959Z,101313.19
2017-11-18T00:31:16.425Z,101314.98
2017-11-18T00:33:43.946Z,101318.03
2017-11-18T00:36:11.408Z,101314.13
2017-11-18T00:38:38.917Z,101312.38
2017-11-18T00:41:06.384Z,101313.69
2017-11-18T00:43:33.865Z,101317.21
2017-11-18T00:46:01.316Z,101319.82
2017-11-18T00:48:28.813Z,101310.12
2017-11-18T00:50:56.278Z,101309.25
2017-11-18T00:53:23.751Z,101315.37
2017-11-18T00:55:51.297Z,101312.26
2017-11-18T00:58:18.796Z,101314.94
2017-11-18T01:00:46.305Z,101308.30
2017-11-18T01:03:13.757Z,101306.13
2017-11-18T01:05:41.247Z,101309.22
2017-11-18T01:08:08.706Z,101317.59
2017-11-18T01:10:36.190Z,101317.65
2017-11-18T01:13:03.675Z,101326.91
2017-11-18T01:15:31.169Z,101319.88
2017-11-18T01:17:58.630Z,101322.55
2017-11-18T01:20:26.123Z,101323.41
2017-11-18T01:22:53.594Z,101326.51
2017-11-18T01:25:21.079Z,101328.71
2017-11-18T01:27:48.546Z,101322.52
2017-11-18T01:30:16.043Z,101322.94
2017-11-18T01:32:43.549Z,101324.30
2017-11-18T01:35:11.108Z,101322.53
2017-11-18T01:37:38.568Z,101318.09
2017-11-18T01:40:06.029Z,101322.47
2017-11-18T01:42:33.516Z,101317.20
2017-11-18T01:45:01.031Z,101316.33
2017-11-18T01:47:28.507Z,101312.80
2017-11-18T01:49:55.964Z,101313.22
2017-11-18T01:52:23.453Z,101305.22
2017-11-18T01:54:50.912Z,101311.37
2017-11-18T01:57:18.423Z,101296.80
2017-11-18T01:59:45.979Z,101292.44
2017-11-18T02:05:13.176Z,101295.47
2017-11-18T02:07:40.653Z,101287.50
2017-11-18T02:10:08.116Z,101284.41
2017-11-18T02:12:35.676Z,101286.28
2017-11-18T02:15:03.136Z,101281.91
2017-11-18T02:17:30.604Z,101281.47
2017-11-18T02:19:58.068Z,101278.75
2017-11-18T02:22:25.664Z,101279.09
2017-11-18T02:24:53.151Z,101272.04
2017-11-18T02:27:20.648Z,101280.84
2017-11-18T02:29:48.217Z,101274.34
2017-11-18T02:32:15.673Z,101262.52
2017-11-18T02:34:43.242Z,101277.06
2017-11-18T02:37:10.697Z,101270.86
2017-11-18T02:39:38.188Z,101259.45
2017-11-18T02:42:05.716Z,101263.84
2017-11-18T02:44:33.204Z,101267.20
2017-11-18T02:47:00.671Z,101259.27
2017-11-18T02:49:28.155Z,101260.91
2017-11-18T02:51:55.609Z,101268.66
2017-11-18T02:54:23.185Z,101261.02
2017-11-18T02:56:50.747Z,101251.72
2017-11-18T02:59:18.226Z,101248.72
2017-11-18T03:01:45.784Z,101245.64
2017-11-18T03:04:13.293Z,101237.13
2017-11-18T03:06:40.778Z,101238.41
2017-11-18T03:09:08.273Z,101237.82
2017-11-18T03:11:35.739Z,101237.53
2017-11-18T03:14:03.227Z,101246.45
2017-11-18T03:16:30.692Z,101230.11
2017-11-18T03:18:58.198Z,101223.44
2017-11-18T03:21:25.738Z,101225.66
2017-11-18T03:23:53.194Z,101228.46
2017-11-18T03:26:20.684Z,101224.45
2017-11-18T03:28:48.146Z,101226.22
2017-11-18T03:31:15.630Z,101234.06
2017-11-18T03:33:43.097Z,101233.51
2017-11-18T03:36:10.583Z,101231.24
2017-11-18T03:38:38.056Z,101228.02
2017-11-18T03:41:05.539Z,101233.71
2017-11-18T03:43:33.018Z,101227.20
2017-11-18T03:46:00.516Z,101232.73
2017-11-18T03:48:28.050Z,101229.06
2017-11-18T03:50:55.524Z,101222.02
2017-11-18T03:53:23.078Z,101222.58
2017-11-18T03:55:50.623Z,101226.31
2017-11-18T03:58:18.114Z,101216.02
2017-11-18T04:00:51.226Z,101221.84
2017-11-18T04:03:18.727Z,101219.56
2017-11-18T04:05:46.204Z,101212.13
2017-11-18T04:08:13.696Z,101214.99
2017-11-18T04:10:41.149Z,101218.23
2017-11-18T04:13:08.634Z,101225.44
2017-11-18T04:15:36.093Z,101219.37
2017-11-18T04:18:03.573Z,101219.14
2017-11-18T04:20:31.133Z,101220.98
2017-11-18T04:22:58.620Z,101225.03
2017-11-18T04:25:26.081Z,101218.20
2017-11-18T04:27:53.594Z,101221.21
2017-11-18T04:30:21.059Z,101218.02
2017-11-18T04:32:48.526Z,101219.23
2017-11-18T04:35:16.006Z,101227.55
2017-11-18T04:37:43.581Z,101219.91
2017-11-18T04:40:11.067Z,101218.92
2017-11-18T04:42:38.572Z,101218.99
2017-11-18T04:45:06.071Z,101220.11
2017-11-18T04:47:33.528Z,101216.73
2017-11-18T04:50:01.018Z,101207.80
2017-11-18T04:52:28.478Z,101212.61
2017-11-18T04:54:56.032Z,101212.80
2017-11-18T04:57:23.499Z,101210.23
2017-11-18T04:59:50.977Z,101204.33
2017-11-18T05:02:18.504Z,101198.88
2017-11-18T05:04:45.990Z,101189.66
2017-11-18T05:07:13.535Z,101190.19
2017-11-18T05:09:41.077Z,101187.11
2017-11-18T05:12:09.221Z,101190.02
2017-11-18T05:14:36.706Z,101197.80
2017-11-18T05:17:04.271Z,101191.80
2017-11-18T05:19:31.732Z,101185.73
2017-11-18T05:21:59.222Z,101188.15
2017-11-18T05:24:26.687Z,101189.70
2017-11-18T05:26:54.165Z,101185.05
2017-11-18T05:29:21.654Z,101179.98
2017-11-18T05:31:49.139Z,101190.23
2017-11-18T05:34:16.698Z,101180.47
2017-11-18T05:36:44.190Z,101180.17
2017-11-18T05:39:11.640Z,101179.56
2017-11-18T05:41:39.139Z,101185.24
2017-11-18T05:44:06.611Z,101183.31
2017-11-18T05:46:34.162Z,101189.37
2017-11-18T05:49:01.731Z,101181.23
2017-11-18T05:51:29.294Z,101187.78
2017-11-18T05:53:56.762Z,101187.11
2017-11-18T05:56:24.229Z,101185.48
2017-11-18T05:58:51.750Z,101184.21
2017-11-18T06:01:19.233Z,101182.19
2017-11-18T06:03:46.708Z,101178.89
2017-11-18T06:06:14.163Z,101186.85
2017-11-18T06:08:41.671Z,101187.48
2017-11-18T06:11:09.127Z,101177.25
2017-11-18T06:13:36.689Z,101182.86
2017-11-18T06:16:04.146Z,101180.78
2017-11-18T06:18:31.629Z,101179.34
2017-11-18T06:20:59.157Z,101183.52
2017-11-18T06:23:26.625Z,101183.63
2017-11-18T06:25:54.198Z,101178.28
2017-11-18T06:28:21.747Z,101179.00
2017-11-18T06:30:49.226Z,101174.02
2017-11-18T06:33:16.728Z,101180.67
2017-11-18T06:35:44.200Z,101179.51
2017-11-18T06:38:11.669Z,101178.63
2017-11-18T06:40:39.140Z,101174.97
2017-11-18T06:43:06.676Z,101182.51
2017-11-18T06:45:34.157Z,101187.03
2017-11-18T06:48:01.613Z,101185.36
2017-11-18T06:50:29.085Z,101195.28
2017-11-18T06:52:56.604Z,101194.80
2017-11-18T06:55:24.183Z,101188.42
2017-11-18T06:57:51.725Z,101198.05
2017-11-18T07:00:19.334Z,101196.41
2017-11-18T07:02:46.805Z,101198.56
2017-11-18T07:05:14.295Z,101201.50
2017-11-18T07:07:41.772Z,101197.27
2017-11-18T07:10:09.320Z,101193.26
2017-11-18T07:12:36.814Z,101195.59
2017-11-18T07:15:04.284Z,101203.78
2017-11-18T07:17:31.785Z,101207.53
2017-11-18T07:19:59.240Z,101206.54
2017-11-18T07:22:26.714Z,101204.33
2017-11-18T07:24:54.177Z,101212.17
2017-11-18T07:27:21.662Z,101203.81
2017-11-18T07:29:49.173Z,101204.64
2017-11-18T07:32:16.743Z,101199.42
2017-11-18T07:34:44.215Z,101207.94
2017-11-18T07:37:11.694Z,101207.95
2017-11-18T07:39:39.166Z,101212.73
2017-11-18T07:42:06.628Z,101214.05
2017-11-18T07:44:34.122Z,101203.99
2017-11-18T07:47:01.682Z,101193.36
2017-11-18T07:49:29.156Z,101201.14
2017-11-18T07:51:56.654Z,101200.27
2017-11-18T07:54:24.178Z,101204.57
2017-11-18T07:56:51.637Z,101206.59
2017-11-18T07:59:19.159Z,101204.39
2017-11-18T08:01:46.669Z,101201.90
2017-11-18T08:04:14.179Z,101205.84
2017-11-18T08:06:41.752Z,101204.38
2017-11-18T08:09:09.240Z,101203.07
2017-11-18T08:11:38.217Z,101204.59
2017-11-18T08:14:05.714Z,101201.95
2017-11-18T08:16:33.250Z,101209.52
2017-11-18T08:19:00.709Z,101201.61
2017-11-18T08:21:28.210Z,101194.84
2017-11-18T08:23:55.679Z,101199.06
2017-11-18T08:26:23.246Z,101197.23
2017-11-18T08:28:50.730Z,101193.43
2017-11-18T08:31:18.243Z,101182.41
2017-11-18T08:33:45.811Z,101181.79
2017-11-18T08:36:25.092Z,101179.44
2017-11-18T08:38:52.575Z,101171.40
2017-11-18T08:41:20.063Z,101176.50
2017-11-18T08:43:47.614Z,101182.36
2017-11-18T08:46:15.101Z,101174.93
2017-11-18T08:48:42.577Z,101169.63
2017-11-18T08:51:10.044Z,101174.06
2017-11-18T08:53:37.517Z,101165.10
2017-11-18T08:56:05.000Z,101161.35
2017-11-18T08:58:32.492Z,101174.28
2017-11-18T09:00:59.956Z,101169.59
2017-11-18T09:03:27.453Z,101174.31
2017-11-18T09:05:54.910Z,101177.00
2017-11-18T09:08:22.394Z,101179.03
2017-11-18T09:10:49.954Z,101172.53
2017-11-18T09:13:17.529Z,101168.05
2017-11-18T09:15:45.034Z,101170.24
2017-11-18T09:18:12.494Z,101163.20
2017-11-18T09:20:39.965Z,101171.45
2017-11-18T09:23:07.425Z,101174.30
2017-11-18T09:25:34.922Z,101175.23
2017-11-18T09:28:02.381Z,101171.44
2017-11-18T09:30:29.853Z,101171.89
2017-11-18T09:32:57.318Z,101170.73
2017-11-18T09:35:24.808Z,101177.09
2017-11-18T09:37:52.266Z,101167.65
2017-11-18T09:40:19.764Z,101166.86
2017-11-18T09:42:47.302Z,101161.58
2017-11-18T09:45:14.795Z,101157.62
2017-11-18T09:47:42.275Z,101156.81
2017-11-18T09:50:09.739Z,101147.12
2017-11-18T09:52:37.219Z,101145.36
2017-11-18T09:55:04.779Z,101139.62
2017-11-18T09:57:32.261Z,101138.75
2017-11-18T09:59:59.794Z,101128.19
2017-11-18T10:02:27.338Z,101129.08
2017-11-18T10:04:54.806Z,101125.98
2017-11-18T10:07:22.280Z,101124.67
2017-11-18T10:09:49.731Z,101129.05
2017-11-18T10:12:17.205Z,101125.98
2017-11-18T10:14:44.680Z,101119.38
2017-11-18T10:17:12.193Z,101119.38
2017-11-18T10:19:39.654Z,101121.13
2017-11-18T10:22:07.106Z,101117.16
2017-11-18T10:24:34.587Z,101114.53
2017-11-18T10:27:02.036Z,101114.55
2017-11-18T10:29:29.518Z,101125.09
2017-11-18T10:31:56.977Z,101122.00
2017-11-18T10:34:24.443Z,101121.13
2017-11-18T10:36:51.898Z,101116.70
2017-11-18T10:39:19.376Z,101100.72
2017-11-18T10:41:46.831Z,101105.68
2017-11-18T10:44:14.310Z,101101.67
2017-11-18T10:46:41.767Z,101094.14
2017-11-18T10:49:09.258Z,101091.53
2017-11-18T10:51:36.782Z,101079.62
2017-11-18T10:54:04.266Z,101073.47
2017-11-18T10:56:31.794Z,101064.55
2017-11-18T10:58:59.274Z,101066.30
2017-11-18T11:01:26.814Z,101075.48
2017-11-18T11:03:54.291Z,101076.03
2017-11-18T11:06:21.777Z,101068.09
2017-11-18T11:08:49.261Z,101052.25
2017-11-18T11:11:16.765Z,101050.06
2017-11-18T11:13:44.229Z,101052.25
2017-11-18T11:16:11.697Z,101049.55
2017-11-18T11:18:39.190Z,101043.41
2017-11-18T11:21:06.888Z,101030.09
2017-11-18T11:23:34.346Z,101022.90
2017-11-18T11:26:01.840Z,101017.03
2017-11-18T11:28:29.358Z,101017.55
2017-11-18T11:30:56.850Z,101008.17
2017-11-18T11:33:24.314Z,101012.20
2017-11-18T11:35:51.855Z,101006.86
2017-11-18T11:38:19.328Z,101012.55
2017-11-18T11:40:46.832Z,101002.83
2017-11-18T11:43:14.288Z,101001.94
2017-11-18T11:45:41.744Z,100995.87
2017-11-18T11:48:09.209Z,100997.79
2017-11-18T11:50:36.666Z,100999.52
2017-11-18T11:53:04.209Z,100996.02
2017-11-18T11:55:31.657Z,100995.61
2017-11-18T11:57:59.140Z,100993.82
2017-11-18T12:00:26.618Z,101006.22
2017-11-18T12:02:54.102Z,101001.36
2017-11-18T12:05:21.560Z,101000.48
2017-11-18T12:07:49.016Z,100994.70
2017-11-18T12:10:16.491Z,100994.81
2017-11-18T12:12:43.986Z,100999.67
2017-11-18T12:15:11.477Z,100999.75
2017-11-18T12:17:38.925Z,100995.84
2017-11-18T12:20:06.451Z,101001.10
2017-11-18T12:22:33.904Z,100990.08
2017-11-18T12:25:01.373Z,100981.31
2017-11-18T12:27:28.826Z,100980.91
2017-11-18T12:29:56.292Z,100966.71
2017-11-18T12:32:23.742Z,100961.45
2017-11-18T12:34:51.293Z,100949.55
2017-11-18T12:37:18.742Z,100940.27
2017-11-18T12:39:46.236Z,100937.24
2017-11-18T12:42:13.690Z,100923.95
2017-11-18T12:44:41.150Z,100933.73
2017-11-18T12:47:08.679Z,100925.30
2017-11-18T12:49:36.144Z,100920.36
2017-11-18T12:52:03.699Z,100920.87
2017-11-18T12:54:31.159Z,100911.61
2017-11-18T12:56:58.707Z,100908.09
2017-11-18T12:59:26.155Z,100904.11
2017-11-18T13:01:53.625Z,100907.70
2017-11-18T13:04:21.079Z,100905.02
2017-11-18T13:06:48.553Z,100896.64
2017-11-18T13:09:16.031Z,100889.19
2017-11-18T13:11:43.537Z,100887.43
2017-11-18T13:14:11.103Z,100891.84
2017-11-18T13:16:38.581Z,100890.02
2017-11-18T13:19:06.062Z,100891.31
2017-11-18T13:21:33.596Z,100889.91
2017-11-18T13:24:01.123Z,100883.75
2017-11-18T13:26:28.668Z,100886.47
2017-11-18T13:28:56.124Z,100888.70
2017-11-18T13:31:23.611Z,100888.26
2017-11-18T13:33:51.117Z,100890.79
2017-11-18T13:36:18.638Z,100886.48
2017-11-18T13:38:46.129Z,100884.72
2017-11-18T13:41:13.583Z,100881.64
2017-11-18T13:43:41.054Z,100890.02
2017-11-18T13:46:08.546Z,100886.50
2017-11-18T13:48:36.013Z,100877.65
2017-11-18T13:51:03.469Z,100882.05
2017-11-18T13:53:30.946Z,100883.84
2017-11-18T13:55:58.395Z,100877.86
2017-11-18T13:58:25.942Z,100880.67
2017-11-18T14:00:53.396Z,100875.41
2017-11-18T14:03:21.740Z,100880.47
2017-11-18T14:05:49.199Z,100881.00
2017-11-18T14:08:16.675Z,100891.28
2017-11-18T14:10:44.150Z,100885.59
2017-11-18T14:13:11.628Z,100879.46
2017-11-18T14:15:39.101Z,100886.84
2017-11-18T14:18:06.561Z,100883.30
2017-11-18T14:20:34.072Z,100880.72
2017-11-18T14:23:01.530Z,100878.52
2017-11-18T14:25:29.091Z,100884.23
2017-11-18T14:27:56.540Z,100877.50
2017-11-18T14:30:24.089Z,100879.22
2017-11-18T14:32:51.537Z,100885.08
2017-11-18T14:35:19.010Z,100881.19
2017-11-18T14:37:46.470Z,100885.23
2017-11-18T14:40:14.042Z,100888.74
2017-11-18T14:42:41.502Z,100899.33
2017-11-18T14:45:08.992Z,100890.02
2017-11-18T14:47:36.450Z,100893.63
2017-11-18T14:50:03.990Z,100893.17
2017-11-18T14:52:31.517Z,100884.39
2017-11-18T14:54:58.972Z,100891.06
2017-11-18T14:57:26.508Z,100895.45
2017-11-18T14:59:53.962Z,100895.94
2017-11-18T15:02:21.440Z,100897.28
2017-11-18T15:04:48.890Z,100893.34
2017-11-18T15:07:16.374Z,100894.66
2017-11-18T15:09:43.830Z,100881.88
2017-11-18T15:12:11.317Z,100871.73
2017-11-18T15:18:05.511Z,100823.35
2017-11-18T15:20:38.517Z,100815.89
2017-11-18T15:26:19.118Z,100806.33
2017-11-18T15:28:52.178Z,100789.08
2017-11-18T15:31:25.221Z,100790.41
2017-11-18T15:37:10.247Z,100786.56
2017-11-18T15:39:37.715Z,100784.31
2017-11-18T15:42:05.234Z,100775.95
2017-11-18T15:47:25.019Z,100777.78
2017-11-18T15:49:58.249Z,100774.64
2017-11-18T15:55:31.922Z,100775.03
2017-11-18T15:57:59.403Z,100773.33
2017-11-18T16:00:31.431Z,100773.80
2017-11-18T16:02:59.847Z,100777.77
2017-11-18T16:05:27.675Z,100778.20
2017-11-18T16:07:55.150Z,100775.58
2017-11-18T16:10:22.725Z,100790.52
2017-11-18T16:12:50.188Z,100777.72
2017-11-18T16:15:17.674Z,100779.95
2017-11-18T16:17:45.140Z,100791.03
2017-11-18T16:20:12.612Z,100788.17
2017-11-18T16:22:40.079Z,100783.47
2017-11-18T16:25:07.558Z,100787.42
2017-11-18T16:27:35.052Z,100791.38
2017-11-18T16:30:02.522Z,100778.59
2017-11-18T16:32:30.015Z,100779.05
2017-11-18T16:34:57.504Z,100782.19
2017-11-18T16:37:24.967Z,100774.31
2017-11-18T16:39:52.470Z,100782.17
2017-11-18T16:42:19.929Z,100778.70
2017-11-18T16:44:47.429Z,100775.63
2017-11-18T16:47:14.894Z,100776.91
2017-11-18T16:49:42.377Z,100776.94
2017-11-18T16:52:09.849Z,100783.60
2017-11-18T16:54:37.300Z,100777.46
2017-11-18T16:57:04.769Z,100782.73
2017-11-18T16:59:32.222Z,100777.44
2017-11-18T17:01:59.809Z,100784.88
2017-11-18T17:04:27.357Z,100781.81
2017-11-18T17:06:54.913Z,100782.19
2017-11-18T17:09:22.365Z,100782.67
2017-11-18T17:11:49.855Z,100783.13
2017-11-18T17:14:17.310Z,100784.91
2017-11-18T17:16:44.795Z,100788.91
2017-11-18T17:19:12.306Z,100791.55
2017-11-18T17:21:39.828Z,100786.22
2017-11-18T17:24:07.287Z,100781.38
2017-11-18T17:26:34.752Z,100787.50
2017-11-18T17:29:02.196Z,100775.13
2017-11-18T17:31:29.933Z,100769.05
2017-11-18T17:33:57.409Z,100764.12
2017-11-18T17:36:24.867Z,100762.42
2017-11-18T17:38:52.366Z,100761.91
2017-11-18T17:41:19.817Z,100760.08
2017-11-18T17:43:47.440Z,100761.81
2017-11-18T17:46:14.888Z,100753.77
2017-11-18T17:48:42.349Z,100756.49
2017-11-18T17:51:09.800Z,100755.52
2017-11-18T17:53:37.276Z,100758.24
2017-11-18T17:56:04.774Z,100746.35
2017-11-18T17:58:32.250Z,100753.45
2017-11-18T18:00:59.710Z,100735.17
2017-11-18T18:03:27.219Z,100723.37
2017-11-18T18:05:54.655Z,100736.23
2017-11-18T18:08:22.122Z,100734.44
2017-11-18T18:10:49.589Z,100737.55
2017-11-18T18:13:17.062Z,100735.36
2017-11-18T18:15:44.538Z,100736.28
2017-11-18T18:18:12.064Z,100732.24
2017-11-18T18:20:39.717Z,100746.41
2017-11-18T18:23:07.256Z,100743.28
2017-11-18T18:25:34.717Z,100735.87
2017-11-18T18:28:02.169Z,100737.08
2017-11-18T18:30:29.657Z,100725.80
2017-11-18T18:32:57.114Z,100731.13
2017-11-18T18:35:24.608Z,100724.87
2017-11-18T18:37:52.066Z,100727.95
2017-11-18T18:40:19.611Z,100733.69
2017-11-18T18:42:47.192Z,100738.53
2017-11-18T18:45:14.678Z,100719.59
2017-11-18T18:47:42.144Z,100717.42
2017-11-18T18:50:09.745Z,100717.53
2017-11-18T18:52:37.218Z,100718.83
2017-11-18T18:55:04.746Z,100714.38
2017-11-18T18:57:32.301Z,100710.03
2017-11-18T18:59:59.760Z,100707.15
2017-11-18T19:02:27.326Z,100708.57
2017-11-18T19:04:54.782Z,100710.48
2017-11-18T19:07:22.328Z,100705.98
2017-11-18T19:09:49.926Z,100700.38
2017-11-18T19:12:17.434Z,100704.23
2017-11-18T19:14:44.890Z,100690.64
2017-11-18T19:17:12.332Z,100690.66
2017-11-18T19:19:39.818Z,100700.34
2017-11-18T19:22:07.376Z,100694.22
2017-11-18T19:24:34.856Z,100695.14
2017-11-18T19:27:02.393Z,100689.85
2017-11-18T19:29:29.961Z,100702.16
2017-11-18T19:31:57.421Z,100703.33
2017-11-18T19:34:24.892Z,100708.59
2017-11-18T19:36:52.384Z,100712.63
2017-11-18T19:39:19.978Z,100716.19
2017-11-18T19:41:47.426Z,100700.87
2017-11-18T19:44:14.909Z,100704.34
2017-11-18T19:46:42.449Z,100695.98
2017-11-18T19:49:09.904Z,100698.61
2017-11-18T19:51:37.379Z,100699.00
2017-11-18T19:54:04.922Z,100699.85
2017-11-18T19:56:32.424Z,100701.60
2017-11-18T19:58:59.882Z,100695.03
2017-11-18T20:01:27.397Z,100686.67
2017-11-18T20:03:54.855Z,100695.95
2017-11-18T20:06:22.330Z,100698.94
2017-11-18T20:08:49.883Z,100689.35
2017-11-18T20:11:17.363Z,100687.97
2017-11-18T20:13:44.813Z,100697.60
2017-11-18T20:16:12.337Z,100687.56
2017-11-18T20:18:39.907Z,100684.53
2017-11-18T20:21:07.370Z,100681.05
2017-11-18T20:23:34.863Z,100688.06
2017-11-18T20:26:02.359Z,100686.30
2017-11-18T20:28:29.841Z,100686.77
2017-11-18T20:30:57.303Z,100673.98
2017-11-18T20:33:24.794Z,100667.65
2017-11-18T20:35:52.253Z,100666.94
2017-11-18T20:38:19.733Z,100661.15
2017-11-18T20:40:47.311Z,100654.13
2017-11-18T20:43:14.787Z,100660.75
2017-11-18T20:45:42.329Z,100660.78
2017-11-18T20:48:09.843Z,100658.91
2017-11-18T20:50:37.349Z,100652.84
2017-11-18T20:53:04.806Z,100651.02
2017-11-18T20:55:32.297Z,100650.70
2017-11-18T20:57:59.831Z,100646.23
2017-11-18T21:00:27.310Z,100645.88
2017-11-18T21:02:54.862Z,100639.08
2017-11-18T21:05:22.366Z,100636.47
2017-11-18T21:07:49.830Z,100632.51
2017-11-18T21:10:17.309Z,100635.66
2017-11-18T21:12:44.874Z,100625.54
2017-11-18T21:15:12.374Z,100612.70
2017-11-18T21:17:39.887Z,100618.84
2017-11-18T21:20:07.367Z,100609.64
2017-11-18T21:22:34.910Z,100596.91
2017-11-18T21:25:02.509Z,100601.70
2017-11-18T21:27:29.965Z,100598.23
2017-11-18T21:29:57.422Z,100597.75
2017-11-18T21:32:24.962Z,100600.30
2017-11-18T21:34:52.409Z,100589.75
2017-11-18T21:37:19.920Z,100589.37
2017-11-18T21:39:47.378Z,100582.22
2017-11-18T21:42:14.844Z,100570.88
2017-11-18T21:44:42.299Z,100566.94
2017-11-18T21:47:09.782Z,100562.00
2017-11-18T21:49:37.224Z,100566.41
2017-11-18T21:52:04.702Z,100566.61
2017-11-18T21:54:32.170Z,100564.02
2017-11-18T21:56:59.644Z,100555.99
2017-11-18T21:59:27.120Z,100559.56
2017-11-18T22:01:54.584Z,100563.02
2017-11-18T22:04:22.048Z,100560.33
2017-11-18T22:06:49.529Z,100558.67
2017-11-18T22:09:17.097Z,100567.00
2017-11-18T22:11:44.591Z,100559.91
2017-11-18T22:14:12.043Z,100550.20
2017-11-18T22:16:39.505Z,100537.21
2017-11-18T22:19:07.006Z,100531.16
2017-11-18T22:21:34.467Z,100524.68
2017-11-18T22:24:01.937Z,100522.89
2017-11-18T22:26:29.449Z,100529.63
2017-11-18T22:28:56.926Z,100538.41
2017-11-18T22:31:24.405Z,100537.89
2017-11-18T22:33:51.868Z,100540.89
2017-11-18T22:36:19.347Z,100538.77
2017-11-18T22:38:46.842Z,100539.73
2017-11-18T22:41:14.294Z,100536.69
2017-11-18T22:43:41.751Z,100523.17
2017-11-18T22:46:09.219Z,100522.80
2017-11-18T22:48:36.685Z,100517.95
2017-11-18T22:51:04.157Z,100520.69
2017-11-18T22:53:31.621Z,100506.97
2017-11-18T22:55:59.215Z,100501.27
2017-11-18T22:58:26.676Z,100500.69
2017-11-18T23:00:54.190Z,100487.55
2017-11-18T23:03:21.650Z,100481.25
2017-11-18T23:05:49.119Z,100480.11
2017-11-18T23:08:16.581Z,100487.07
2017-11-18T23:10:44.083Z,100469.53
2017-11-18T23:13:11.566Z,100468.59
2017-11-18T23:15:39.120Z,100468.18
2017-11-18T23:18:06.706Z,100463.73
2017-11-18T23:20:34.161Z,100460.66
2017-11-18T23:23:01.673Z,100454.95
2017-11-18T23:25:29.174Z,100453.06
2017-11-18T23:27:56.641Z,100456.91
2017-11-18T23:30:24.184Z,100453.19
2017-11-18T23:32:51.685Z,100445.71
2017-11-18T23:35:19.141Z,100441.75
2017-11-18T23:37:46.637Z,100440.44
2017-11-18T23:40:14.085Z,100439.53
2017-11-18T23:42:41.532Z,100441.05
2017-11-18T23:45:09.030Z,100434.56
2017-11-18T23:47:36.498Z,100435.80
2017-11-18T23:50:03.979Z,100434.43
2017-11-18T23:52:31.446Z,100427.80
2017-11-18T23:54:58.949Z,100426.66
2017-11-18T23:57:26.397Z,100431.13
2017-11-18T23:59:53.859Z,100412.04
